Time;durP1;ratioP1;P1;durP2;ratioP2;P2;SDS_P1;SDS_P2;PMS_P1;PMS_P2;Temp;Humidity;BMP_temperature;BMP_pressure;BME280_temperature;BME280_humidity;BME280_pressure;Samples;Min_cycle;Max_cycle;Signal;HPM_P1;HPM_P2
2022/09/23 00:01:13;;;;;;;2.55;2.20;;;;;;;22.84;40.00;95117.56;4987746;28;20065;-66
2022/09/23 00:03:44;;;;;;;2.67;2.40;;;;;;;22.84;39.52;95117.56;5003495;28;20049;-67
2022/09/23 00:06:11;;;;;;;2.70;2.38;;;;;;;22.84;39.89;95114.84;5030116;28;20051;-66
2022/09/23 00:08:37;;;;;;;2.20;2.00;;;;;;;22.84;40.02;95123.00;5004281;28;20438;-65
2022/09/23 00:11:06;;;;;;;2.30;2.10;;;;;;;22.81;39.76;95113.13;5008494;28;20062;-67
2022/09/23 00:13:32;;;;;;;2.35;2.15;;;;;;;22.75;39.59;95098.81;5008700;28;20789;-66
2022/09/23 00:16:02;;;;;;;2.53;2.33;;;;;;;22.82;39.76;95109.16;5004360;28;20044;-63
2022/09/23 00:18:27;;;;;;;3.00;2.53;;;;;;;22.83;39.86;95099.78;5011458;28;20096;-66
2022/09/23 00:20:53;;;;;;;2.58;2.30;;;;;;;22.79;39.69;95104.72;5001963;28;20397;-64
2022/09/23 00:23:18;;;;;;;2.30;2.10;;;;;;;22.83;39.90;95110.66;5014279;28;20931;-67
2022/09/23 00:25:44;;;;;;;2.40;2.20;;;;;;;22.75;39.96;95109.69;5002631;28;20042;-66
2022/09/23 00:28:09;;;;;;;2.47;2.17;;;;;;;22.76;40.02;95105.72;5001999;28;20042;-67
2022/09/23 00:30:34;;;;;;;2.30;2.10;;;;;;;22.76;39.96;95105.72;5002324;28;20126;-68
2022/09/23 00:33:00;;;;;;;2.80;2.25;;;;;;;22.78;40.23;95100.53;5001817;28;20060;-67
2022/09/23 00:35:25;;;;;;;2.47;2.22;;;;;;;22.78;39.81;95109.44;5001826;28;20203;-66
2022/09/23 00:37:51;;;;;;;2.75;2.40;;;;;;;22.80;39.90;95106.22;4997048;28;20092;-65
2022/09/23 00:40:16;;;;;;;2.22;1.98;;;;;;;22.76;39.85;95105.72;5014977;28;20045;-67
2022/09/23 00:42:46;;;;;;;2.60;2.30;;;;;;;22.72;40.24;95111.44;5006021;28;20054;-64
2022/09/23 00:45:11;;;;;;;;;;;;;;;22.75;40.13;95096.84;5011264;28;20074;-67
2022/09/23 00:47:42;;;;;;;2.58;2.30;;;;;;;22.57;39.88;95077.59;5003550;28;19929;-67
2022/09/23 00:50:26;;;;;;;;;;;;;;;22.75;40.25;95106.97;5003198;28;20034;-68
2022/09/23 00:52:54;;;;;;;2.40;2.20;;;;;;;22.79;40.01;95110.19;5002422;28;20018;-65
2022/09/23 00:55:38;;;;;;;2.35;2.15;;;;;;;22.72;39.99;95105.25;4991924;28;20077;-68
2022/09/23 00:58:04;;;;;;;2.30;2.10;;;;;;;22.75;40.37;95104.25;5006364;28;20026;-65
2022/09/23 01:00:30;;;;;;;2.30;2.10;;;;;;;22.71;40.18;95098.34;4985020;28;20237;-68
2022/09/23 01:02:55;;;;;;;2.97;2.50;;;;;;;22.72;40.18;95110.69;5002113;28;20569;-68
2022/09/23 01:05:21;;;;;;;3.35;2.42;;;;;;;22.75;40.20;95112.41;5020434;28;20095;-68
2022/09/23 01:07:47;;;;;;;2.55;2.35;;;;;;;22.75;39.90;95109.69;5007206;28;20115;-71
2022/09/23 01:10:13;;;;;;;2.72;2.10;;;;;;;22.75;40.14;95115.13;5001811;28;20045;-66
2022/09/23 01:13:16;;;;;;;2.40;2.17;;;;;;;22.64;40.32;95101.59;4991965;28;20025;-70
2022/09/23 01:16:05;;;;;;;2.47;2.20;;;;;;;22.70;40.14;95107.75;4987321;28;20037;-67
2022/09/23 01:18:53;;;;;;;2.30;2.00;;;;;;;22.61;40.24;95094.41;5003515;28;20055;-67
2022/09/23 01:21:28;;;;;;;2.67;2.40;;;;;;;22.70;40.24;95107.75;5005491;28;20886;-68
2022/09/23 01:24:14;;;;;;;3.47;2.15;;;;;;;22.71;40.36;95109.97;5005795;28;20049;-67
2022/09/23 01:26:59;;;;;;;2.42;2.05;;;;;;;22.67;40.32;95108.75;4988197;28;20572;-67
2022/09/23 01:29:52;;;;;;;2.60;2.05;;;;;;;22.70;40.26;95129.53;5001905;28;20129;-68
2022/09/23 01:32:34;;;;;;;3.35;2.00;;;;;;;22.65;40.27;95113.97;5001272;28;20042;-67
2022/09/23 01:35:18;;;;;;;2.63;2.42;;;;;;;22.65;40.45;95122.13;4989552;28;20519;-66
2022/09/23 01:38:10;;;;;;;4.78;2.17;;;;;;;22.65;40.58;95111.25;5007582;28;20045;-67
2022/09/23 01:40:44;;;;;;;2.50;2.30;;;;;;;22.65;40.51;95116.69;4993451;28;20042;-66
2022/09/23 01:43:35;;;;;;;2.88;2.10;;;;;;;22.64;40.32;95104.31;5018170;28;20048;-68
2022/09/23 01:46:00;;;;;;;2.60;2.40;;;;;;;22.36;40.40;95070.28;5002515;28;20120;-65
2022/09/23 01:48:28;;;;;;;2.70;2.00;;;;;;;22.14;40.31;95041.16;5003602;28;20018;-65
2022/09/23 01:51:22;;;;;;;2.92;2.50;;;;;;;22.61;40.46;95116.19;5001058;28;20044;-64
2022/09/23 01:54:07;;;;;;;2.25;2.05;;;;;;;22.47;40.44;95092.75;4991271;28;20042;-66
2022/09/23 01:56:37;;;;;;;2.40;1.90;;;;;;;22.62;40.73;95117.69;5001603;28;20058;-64
2022/09/23 01:59:35;;;;;;;2.20;2.00;;;;;;;22.61;40.30;95121.63;5008933;28;20049;-69
2022/09/23 02:02:09;;;;;;;2.40;2.20;;;;;;;22.63;40.54;95124.59;4997773;28;20103;-66
2022/09/23 02:04:44;;;;;;;2.30;2.10;;;;;;;22.44;40.33;95085.59;5003831;28;20037;-69
2022/09/23 02:07:36;;;;;;;2.50;2.30;;;;;;;22.63;40.38;95119.91;4994496;28;20064;-68
2022/09/23 02:10:14;;;;;;;2.25;2.05;;;;;;;22.68;40.25;95137.47;4983646;28;20124;-66
2022/09/23 02:12:40;;;;;;;2.60;2.25;;;;;;;22.23;40.27;95070.84;4994007;28;20101;-70
2022/09/23 02:15:11;;;;;;;2.80;2.10;;;;;;;21.96;40.72;95036.28;5003257;28;20152;-69
2022/09/23 02:17:44;;;;;;;2.55;2.35;;;;;;;22.60;40.65;95120.16;4991034;28;20068;-67
2022/09/23 02:20:10;;;;;;;2.55;2.10;;;;;;;22.59;40.95;95124.88;5005550;28;20600;-68
2022/09/23 02:22:40;;;;;;;2.50;2.30;;;;;;;22.63;40.50;95121.88;5002457;28;20048;-70
2022/09/23 02:25:06;;;;;;;;;;;;;;;22.60;40.66;95117.44;5003194;28;20348;-69
2022/09/23 02:27:46;;;;;;;2.30;2.10;;;;;;;22.45;40.81;95097.94;5002890;28;19916;-68
2022/09/23 02:30:14;;;;;;;2.50;2.30;;;;;;;22.59;40.67;95113.25;4987696;28;20045;-68
2022/09/23 02:32:59;;;;;;;2.45;2.22;;;;;;;22.54;40.79;95108.53;4980462;28;20490;-70
2022/09/23 02:35:43;;;;;;;2.35;2.00;;;;;;;22.61;40.64;95116.19;5002082;28;20532;-66
2022/09/23 02:38:23;;;;;;;2.45;2.10;;;;;;;22.61;40.06;95110.75;5016050;28;20050;-68
2022/09/23 02:40:54;;;;;;;2.42;2.08;;;;;;;22.57;40.50;95121.16;5012831;28;20046;-69
2022/09/23 02:43:45;;;;;;;2.35;2.15;;;;;;;22.54;40.89;95105.81;4996974;28;20128;-67
2022/09/23 02:46:10;;;;;;;2.03;1.75;;;;;;;22.36;40.56;95090.09;4998790;28;20100;-70
2022/09/23 02:48:44;;;;;;;2.38;2.17;;;;;;;22.37;40.57;95085.38;5002808;28;20068;-68
2022/09/23 02:51:10;;;;;;;2.35;1.90;;;;;;;22.18;40.91;95068.84;4997607;28;20125;-69
2022/09/23 02:53:36;;;;;;;2.38;2.17;;;;;;;22.30;40.73;95086.66;5001204;28;20132;-69
2022/09/23 02:56:02;;;;;;;2.45;2.08;;;;;;;22.14;40.82;95062.91;5000269;28;20096;-66
2022/09/23 02:58:27;;;;;;;2.20;1.77;;;;;;;22.35;40.90;95094.03;4998601;28;20038;-69
2022/09/23 03:01:22;;;;;;;2.25;2.05;;;;;;;22.28;40.54;95094.53;4987668;28;20517;-69
2022/09/23 03:04:03;;;;;;;2.38;2.13;;;;;;;22.57;40.76;95124.63;4986013;28;20675;-68
2022/09/23 03:06:44;;;;;;;2.25;1.95;;;;;;;22.36;40.79;95105.66;5001450;28;20060;-68
2022/09/23 03:09:21;;;;;;;2.40;1.83;;;;;;;22.53;40.87;95131.56;5000978;28;20034;-65
2022/09/23 03:11:49;;;;;;;2.60;2.25;;;;;;;22.56;40.97;95133.28;5001373;28;20124;-70
2022/09/23 03:14:49;;;;;;;2.28;2.05;;;;;;;22.27;40.48;95087.66;4981500;28;20270;-67
2022/09/23 03:17:42;;;;;;;2.40;1.90;;;;;;;22.23;40.75;95087.16;5007972;28;20042;-68
2022/09/23 03:20:24;;;;;;;1.95;1.63;;;;;;;21.93;40.35;95031.84;4986612;28;20042;-67
2022/09/23 03:22:52;;;;;;;2.40;2.20;;;;;;;22.46;40.88;95113.75;4997567;28;20042;-68
2022/09/23 03:25:20;;;;;;;2.47;2.28;;;;;;;22.44;40.70;95110.81;5001850;28;20095;-68
2022/09/23 03:27:45;;;;;;;2.28;1.80;;;;;;;21.63;40.76;95016.59;4998968;28;20121;-67
2022/09/23 03:30:11;;;;;;;2.55;2.30;;;;;;;22.42;40.71;95118.75;4999672;28;20560;-69
2022/09/23 03:32:37;;;;;;;2.50;2.10;;;;;;;22.45;40.55;95119.72;4987562;28;20056;-68
2022/09/23 03:35:03;;;;;;;2.40;2.15;;;;;;;22.54;40.66;95122.16;4983365;28;20156;-68
2022/09/23 03:37:32;;;;;;;2.17;1.80;;;;;;;21.78;40.80;95013.59;5001245;28;20043;-67
2022/09/23 03:40:00;;;;;;;2.53;2.22;;;;;;;22.51;40.80;95128.59;5005616;28;20110;-68
2022/09/23 03:42:28;;;;;;;2.65;2.30;;;;;;;22.47;40.98;95117.25;5007648;28;20049;-71
2022/09/23 03:44:56;;;;;;;2.40;2.10;;;;;;;22.26;40.66;95083.44;4994409;28;20042;-68
2022/09/23 03:47:23;;;;;;;2.47;2.28;;;;;;;22.21;40.65;95088.88;5016996;28;20551;-70
2022/09/23 03:49:49;;;;;;;2.20;2.00;;;;;;;22.49;40.85;95125.66;5003656;28;20042;-68
2022/09/23 03:52:16;;;;;;;2.33;2.10;;;;;;;22.26;40.96;95097.03;5003419;28;20050;-67
2022/09/23 03:54:41;;;;;;;2.50;2.08;;;;;;;22.07;41.01;95068.88;5013269;28;20026;-68
2022/09/23 03:57:07;;;;;;;2.10;1.90;;;;;;;22.35;40.96;95115.81;5003327;28;20049;-68
2022/09/23 03:59:32;;;;;;;2.30;2.10;;;;;;;22.12;40.66;95081.72;5003341;28;20034;-68
2022/09/23 04:01:58;;;;;;;2.00;1.80;;;;;;;22.52;40.76;95135.53;4996365;28;20045;-67
2022/09/23 04:04:27;;;;;;;2.28;1.88;;;;;;;22.54;40.77;95133.03;4981226;28;20061;-68
2022/09/23 04:06:55;;;;;;;2.33;2.13;;;;;;;22.21;40.32;95100.53;5003409;28;20566;-67
2022/09/23 04:09:21;;;;;;;2.53;2.30;;;;;;;22.51;40.72;95134.03;5003749;28;20369;-65
2022/09/23 04:11:48;;;;;;;2.25;2.05;;;;;;;22.49;40.55;95141.97;4987612;28;20121;-66
2022/09/23 04:14:14;;;;;;;2.40;2.13;;;;;;;22.48;40.35;95140.47;5000805;28;20453;-68
2022/09/23 04:16:39;;;;;;;2.70;2.10;;;;;;;22.57;40.63;95148.38;5004240;28;20029;-67
2022/09/23 04:19:05;;;;;;;2.15;1.95;;;;;;;22.55;40.66;95140.69;5011815;28;20091;-64
2022/09/23 04:21:31;;;;;;;2.22;2.03;;;;;;;21.98;40.65;95087.44;5016448;28;20025;-66
2022/09/23 04:23:56;;;;;;;2.40;2.20;;;;;;;22.40;40.74;95153.13;5012488;28;20471;-69
2022/09/23 04:26:22;;;;;;;2.17;1.98;;;;;;;22.33;40.74;95131.91;5011005;28;20077;-66
2022/09/23 04:28:47;;;;;;;2.38;2.08;;;;;;;22.49;40.79;95158.31;5011341;28;20038;-69
2022/09/23 04:31:12;;;;;;;2.25;2.05;;;;;;;22.46;40.88;95160.03;5008487;28;20037;-68
2022/09/23 04:33:38;;;;;;;2.45;2.00;;;;;;;22.54;40.55;95158.28;5021476;28;20022;-70
2022/09/23 04:36:04;;;;;;;2.25;1.95;;;;;;;22.17;40.57;95121.75;5012757;28;20306;-67
2022/09/23 04:38:29;;;;;;;2.80;2.22;;;;;;;22.46;40.74;95172.91;5004818;28;20046;-68
2022/09/23 04:40:55;;;;;;;2.28;2.08;;;;;;;22.47;40.83;95166.22;5016773;28;20034;-68
2022/09/23 04:43:22;;;;;;;2.40;2.10;;;;;;;22.52;40.44;95168.19;5011183;28;20094;-67
2022/09/23 04:45:58;;;;;;;2.30;2.10;;;;;;;22.12;40.93;95119.81;5019164;28;20037;-67
2022/09/23 04:48:24;;;;;;;2.20;2.00;;;;;;;22.42;40.91;95170.44;5002362;28;20058;-67
2022/09/23 04:50:49;;;;;;;2.40;2.10;;;;;;;22.57;40.63;95181.03;5004871;28;20046;-67
2022/09/23 04:53:15;;;;;;;2.30;2.10;;;;;;;22.56;40.63;95179.56;5003701;28;20788;-68
2022/09/23 04:55:41;;;;;;;3.22;2.47;;;;;;;22.53;40.74;95186.00;5027882;28;20057;-72
2022/09/23 04:58:08;;;;;;;2.55;2.35;;;;;;;22.02;41.21;95104.97;5034411;28;20652;-69
2022/09/23 05:00:34;;;;;;;3.63;2.33;;;;;;;22.32;41.56;95154.88;5034306;28;20155;-69
2022/09/23 05:02:59;;;;;;;2.65;2.40;;;;;;;22.52;41.52;95184.50;5023385;28;20077;-77
2022/09/23 05:05:26;;;;;;;2.53;2.22;;;;;;;22.01;41.31;95100.78;5018788;28;20076;-71
2022/09/23 05:07:53;;;;;;;4.00;2.47;;;;;;;22.55;42.05;95165.19;5031526;28;20056;-77
2022/09/23 05:10:19;;;;;;;2.83;2.20;;;;;;;22.74;42.36;95195.34;5031786;28;20036;-73
2022/09/23 05:12:44;;;;;;;3.60;2.42;;;;;;;22.80;43.75;95199.53;5039071;28;20083;-74
2022/09/23 05:15:14;;;;;;;3.38;2.38;;;;;;;22.95;42.79;95194.53;5015353;28;20095;-73
2022/09/23 05:17:41;;;;;;;;;;;;;;;23.17;42.68;95189.72;5025736;28;20045;-73
2022/09/23 05:20:08;;;;;;;3.50;2.38;;;;;;;23.47;41.68;95196.00;5035858;28;19932;-73
2022/09/23 05:22:33;;;;;;;2.72;2.22;;;;;;;23.03;41.21;95119.22;5032950;28;20781;-76
2022/09/23 05:25:00;;;;;;;3.08;2.33;;;;;;;23.50;41.42;95195.00;5030734;28;20044;-64
2022/09/23 05:27:25;;;;;;;3.83;2.30;;;;;;;23.71;41.00;95198.84;5036869;28;20497;-67
2022/09/23 05:29:51;;;;;;;4.55;2.47;;;;;;;23.77;43.92;95197.56;5033181;28;20057;-79
2022/09/23 05:32:17;;;;;;;2.85;2.20;;;;;;;23.83;42.75;95200.25;5032467;28;20052;-74
2022/09/23 05:34:42;;;;;;;3.05;2.50;;;;;;;23.98;41.98;95196.63;5023749;28;20500;-75
2022/09/23 05:37:08;;;;;;;3.03;2.72;;;;;;;23.93;45.09;95200.16;4996848;28;20045;-74
2022/09/23 05:39:33;;;;;;;3.97;2.30;;;;;;;23.81;43.64;95154.38;5027104;28;20024;-74
2022/09/23 05:41:59;;;;;;;4.80;2.60;;;;;;;24.24;42.38;95207.06;5031058;28;20044;-76
2022/09/23 05:44:25;;;;;;;3.80;2.63;;;;;;;23.84;41.23;95119.88;5031395;28;20056;-74
2022/09/23 05:46:50;;;;;;;3.33;2.10;;;;;;;24.41;41.12;95195.53;5024300;28;20032;-70
2022/09/23 05:49:16;;;;;;;5.65;2.40;;;;;;;24.23;41.03;95157.22;5031202;28;20040;-78
2022/09/23 05:51:41;;;;;;;3.67;2.25;;;;;;;24.56;40.73;95203.31;5002158;28;20044;-73
2022/09/23 05:54:07;;;;;;;3.50;2.28;;;;;;;24.63;40.94;95200.75;5033377;28;20683;-72
2022/09/23 05:56:33;;;;;;;3.40;2.55;;;;;;;24.63;41.05;95189.09;5034064;28;20030;-73
2022/09/23 05:58:59;;;;;;;3.65;2.30;;;;;;;24.53;41.14;95196.16;5030669;28;20509;-75
2022/09/23 06:01:32;;;;;;;3.40;2.20;;;;;;;24.72;40.49;95186.00;5000245;28;20046;-74
2022/09/23 06:03:58;;;;;;;2.60;2.30;;;;;;;24.82;40.40;95198.81;5028433;28;20024;-75
2022/09/23 06:06:32;;;;;;;5.82;2.40;;;;;;;24.89;40.04;95196.22;5034127;28;20041;-73
2022/09/23 06:08:58;;;;;;;4.85;2.65;;;;;;;24.59;40.25;95147.69;5035457;28;20041;-73
2022/09/23 06:11:24;;;;;;;3.30;2.47;;;;;;;24.97;39.93;95191.66;5033381;28;20060;-70
2022/09/23 06:13:54;;;;;;;3.75;2.67;;;;;;;24.58;39.70;95114.16;5037280;28;20154;-69
2022/09/23 06:16:19;;;;;;;5.00;2.88;;;;;;;24.86;39.44;95158.28;5034459;28;20048;-72
2022/09/23 06:18:44;;;;;;;3.20;2.40;;;;;;;24.78;39.15;95151.19;5012720;28;20029;-68
2022/09/23 06:21:14;;;;;;;3.78;2.30;;;;;;;24.75;39.41;95138.53;5016967;28;20139;-65
2022/09/23 06:23:40;;;;;;;2.55;2.28;;;;;;;24.90;39.31;95170.41;4997806;28;20043;-68
2022/09/23 06:26:07;;;;;;;3.35;2.50;;;;;;;24.99;39.33;95194.66;5028249;28;20205;-65
2022/09/23 06:28:35;;;;;;;4.72;2.50;;;;;;;24.55;38.93;95131.56;5032450;28;20079;-68
2022/09/23 06:31:02;;;;;;;3.63;2.35;;;;;;;24.89;38.99;95179.84;5028964;28;20020;-65
2022/09/23 06:33:28;;;;;;;2.95;2.03;;;;;;;24.82;39.37;95185.88;5033938;28;20527;-69
2022/09/23 06:35:57;;;;;;;3.20;2.53;;;;;;;24.55;39.37;95149.97;5007370;28;20040;-70
2022/09/23 06:38:23;;;;;;;3.22;2.40;;;;;;;24.44;39.08;95139.16;5031199;28;20040;-64
2022/09/23 06:40:50;;;;;;;2.70;2.22;;;;;;;24.24;38.94;95117.03;5038629;28;20033;-67
2022/09/23 06:43:15;;;;;;;2.60;2.40;;;;;;;24.58;39.41;95176.25;5025669;28;20108;-67
2022/09/23 06:45:41;;;;;;;2.47;2.28;;;;;;;24.56;39.37;95179.47;5035190;28;20036;-63
2022/09/23 06:48:08;;;;;;;3.13;2.22;;;;;;;24.34;39.09;95157.13;5022409;28;20040;-67
2022/09/23 06:50:33;;;;;;;2.78;2.00;;;;;;;24.30;39.19;95148.44;5017126;28;20029;-69
2022/09/23 06:52:59;;;;;;;2.80;2.00;;;;;;;24.47;38.93;95196.22;5006776;28;20033;-68
2022/09/23 06:55:26;;;;;;;2.53;2.13;;;;;;;24.45;39.39;95206.91;5018087;28;20037;-64
2022/09/23 06:57:51;;;;;;;2.55;2.22;;;;;;;24.27;38.93;95182.22;5025265;28;20025;-69
2022/09/23 07:00:17;;;;;;;2.50;2.20;;;;;;;24.23;39.23;95184.50;5026881;28;20024;-64
2022/09/23 07:02:42;;;;;;;3.30;2.28;;;;;;;24.20;39.08;95184.78;5020219;28;20041;-66
2022/09/23 07:05:08;;;;;;;3.47;2.17;;;;;;;23.94;39.22;95151.78;5021195;28;20478;-66
2022/09/23 07:07:36;;;;;;;3.92;2.42;;;;;;;24.22;39.52;95204.13;5020597;28;20049;-63
2022/09/23 07:10:02;;;;;;;3.63;2.35;;;;;;;24.29;39.36;95215.22;5003902;28;20029;-67
2022/09/23 07:12:28;;;;;;;2.60;2.22;;;;;;;23.85;39.28;95148.66;5011156;28;20463;-68
2022/09/23 07:14:53;;;;;;;3.80;2.42;;;;;;;24.02;39.16;95183.47;5013709;28;20107;-62
2022/09/23 07:17:19;;;;;;;2.80;2.55;;;;;;;24.21;39.69;95219.75;5013522;28;20426;-64
2022/09/23 07:19:45;;;;;;;3.15;2.22;;;;;;;24.12;39.54;95211.88;5012842;28;20059;-68
2022/09/23 07:22:10;;;;;;;4.03;2.35;;;;;;;24.17;39.68;95224.75;5019747;28;20041;-67
2022/09/23 07:24:36;;;;;;;3.55;2.30;;;;;;;23.90;39.27;95173.88;5021231;28;20560;-70
2022/09/23 07:27:02;;;;;;;3.13;2.40;;;;;;;24.07;39.54;95215.41;5019275;28;20517;-65
2022/09/23 07:29:28;;;;;;;3.67;2.47;;;;;;;23.81;39.52;95175.44;5027077;28;20034;-68
2022/09/23 07:31:53;;;;;;;3.30;2.50;;;;;;;23.80;39.70;95202.00;5027467;28;20044;-68
2022/09/23 07:34:19;;;;;;;2.88;2.33;;;;;;;23.93;39.63;95226.66;5022726;28;20040;-61
2022/09/23 07:36:44;;;;;;;2.50;2.30;;;;;;;23.91;39.31;95224.44;5027446;28;20466;-70
2022/09/23 07:39:10;;;;;;;2.72;2.30;;;;;;;23.95;39.48;95230.38;5031294;28;20025;-64
2022/09/23 07:41:36;;;;;;;4.20;2.47;;;;;;;23.95;39.35;95241.28;5005198;28;21551;-70
2022/09/23 07:44:02;;;;;;;3.35;2.58;;;;;;;23.66;39.18;95191.44;5021498;28;20048;-71
2022/09/23 07:46:32;;;;;;;2.65;2.30;;;;;;;23.91;39.37;95240.81;5029320;28;20033;-66
2022/09/23 07:48:58;;;;;;;3.40;2.53;;;;;;;23.66;39.25;95191.44;5009238;28;20025;-69
2022/09/23 07:51:28;;;;;;;3.30;2.40;;;;;;;23.71;39.32;95198.84;5026938;28;20878;-70
2022/09/23 07:53:54;;;;;;;3.90;2.28;;;;;;;23.72;39.31;95206.53;5019855;28;20037;-63
2022/09/23 07:56:20;;;;;;;2.85;2.45;;;;;;;23.57;39.00;95197.16;5030833;28;20507;-62
2022/09/23 07:58:58;;;;;;;2.95;2.60;;;;;;;23.80;39.36;95217.63;5017042;28;20134;-65
2022/09/23 08:01:25;;;;;;;3.30;2.28;;;;;;;23.36;38.87;95162.63;5019183;28;20417;-68
2022/09/23 08:03:50;;;;;;;3.35;2.30;;;;;;;23.28;38.99;95146.06;5025654;28;20559;-66
2022/09/23 08:06:16;;;;;;;2.65;2.22;;;;;;;23.83;39.28;95241.16;5027995;28;20029;-69
2022/09/23 08:08:42;;;;;;;3.33;2.50;;;;;;;23.62;39.15;95218.22;5033766;28;20521;-65
2022/09/23 08:11:09;;;;;;;3.60;2.50;;;;;;;23.82;39.41;95242.38;5028397;28;20026;-63
2022/09/23 08:13:34;;;;;;;3.78;2.45;;;;;;;23.74;39.45;95236.00;5032556;28;20109;-66
2022/09/23 08:16:00;;;;;;;2.50;2.30;;;;;;;23.36;38.91;95182.41;5026234;28;20040;-65
2022/09/23 08:18:25;;;;;;;3.03;2.35;;;;;;;23.77;39.50;95232.28;5032773;28;20041;-62
2022/09/23 08:20:51;;;;;;;3.53;2.75;;;;;;;23.55;39.00;95207.84;5036840;28;20037;-67
2022/09/23 08:23:17;;;;;;;2.97;2.35;;;;;;;23.61;38.90;95211.28;5011304;28;20064;-64
2022/09/23 08:25:45;;;;;;;3.45;2.25;;;;;;;23.71;39.07;95220.66;5038610;28;20110;-66
2022/09/23 08:28:15;;;;;;;3.85;2.35;;;;;;;23.13;39.25;95148.38;5036062;28;20064;-63
2022/09/23 08:30:40;;;;;;;3.88;2.40;;;;;;;23.70;39.13;95232.81;5041460;28;20236;-64
2022/09/23 08:33:06;;;;;;;2.65;2.13;;;;;;;23.64;39.31;95232.09;5037706;28;20159;-62
2022/09/23 08:35:31;;;;;;;2.70;2.30;;;;;;;23.66;39.45;95219.44;5037966;28;20090;-62
2022/09/23 08:37:57;;;;;;;2.92;2.33;;;;;;;23.29;38.90;95154.97;5038197;28;20506;-62
2022/09/23 08:40:22;;;;;;;3.35;2.30;;;;;;;23.45;39.45;95182.13;5029844;28;20391;-63
2022/09/23 08:42:48;;;;;;;3.45;2.42;;;;;;;23.70;38.79;95224.63;5019803;28;20044;-63
2022/09/23 08:45:35;;;;;;;3.67;2.60;;;;;;;23.29;39.49;95177.53;5020499;28;20037;-65
2022/09/23 08:48:05;;;;;;;3.42;2.17;;;;;;;23.53;39.08;95215.78;4997325;28;20100;-64
2022/09/23 08:50:51;;;;;;;2.63;2.30;;;;;;;23.65;39.25;95222.69;4989144;28;20124;-64
2022/09/23 08:53:34;;;;;;;2.60;2.40;;;;;;;23.60;39.09;95223.41;4993845;28;20053;-65
2022/09/23 08:56:06;;;;;;;3.05;2.50;;;;;;;23.38;39.26;95188.13;5003471;28;20050;-65
2022/09/23 08:59:00;;;;;;;2.78;2.38;;;;;;;23.66;39.46;95224.91;5001972;28;20047;-63
2022/09/23 09:01:45;;;;;;;2.50;2.13;;;;;;;23.21;39.37;95162.94;5008577;28;20053;-63
2022/09/23 09:04:38;;;;;;;2.95;2.30;;;;;;;23.68;39.38;95210.75;5017702;28;20049;-62
2022/09/23 09:07:29;;;;;;;2.83;2.53;;;;;;;23.26;38.93;95148.56;5038527;28;20031;-62
2022/09/23 09:10:15;;;;;;;2.75;2.22;;;;;;;23.64;39.32;95210.28;5008069;28;20060;-70
2022/09/23 09:12:42;;;;;;;3.55;2.40;;;;;;;23.73;39.40;95202.53;5020881;28;20030;-64
2022/09/23 09:15:20;;;;;;;3.53;2.38;;;;;;;23.25;39.19;95130.72;5034140;28;20109;-64
2022/09/23 09:18:08;;;;;;;2.67;2.10;;;;;;;23.92;38.94;95219.75;5012486;28;20069;-67
2022/09/23 09:20:56;;;;;;;2.60;2.13;;;;;;;23.95;39.08;95208.56;5029511;28;20048;-69
2022/09/23 09:23:44;;;;;;;2.58;2.20;;;;;;;24.00;38.05;95205.03;5036070;28;20045;-68
2022/09/23 09:26:23;;;;;;;3.72;2.30;;;;;;;24.02;37.20;95186.19;5015176;28;20529;-67
2022/09/23 09:29:05;;;;;;;3.20;2.08;;;;;;;23.89;36.76;95134.22;4995338;28;20058;-67
2022/09/23 09:31:45;;;;;;;2.20;2.00;;;;;;;24.44;36.64;95215.59;5006343;28;20076;-69
2022/09/23 09:34:17;;;;;;;3.38;2.33;;;;;;;24.31;37.55;95196.34;5024785;28;20160;-68
2022/09/23 09:37:05;;;;;;;2.58;2.15;;;;;;;24.47;37.44;95203.66;5003814;28;20041;-63
2022/09/23 09:39:34;;;;;;;4.00;2.15;;;;;;;24.69;37.12;95214.34;5004988;28;20046;-66
2022/09/23 09:41:59;;;;;;;3.17;1.90;;;;;;;24.76;36.97;95202.84;5007155;28;20065;-63
2022/09/23 09:44:28;;;;;;;2.28;2.03;;;;;;;24.86;37.18;95216.38;5000396;28;20070;-67
2022/09/23 09:47:15;;;;;;;2.88;2.20;;;;;;;24.84;37.24;95216.16;5000505;28;20042;-69
2022/09/23 09:49:47;;;;;;;3.60;2.22;;;;;;;24.41;36.91;95151.13;4996667;28;20445;-64
2022/09/23 09:52:19;;;;;;;2.65;2.25;;;;;;;25.12;36.21;95224.78;5029497;28;20053;-68
2022/09/23 09:54:44;;;;;;;3.25;1.98;;;;;;;24.86;35.72;95163.75;5033981;28;20025;-68
2022/09/23 09:57:37;;;;;;;2.53;1.90;;;;;;;25.30;35.70;95213.13;5037934;28;20040;-68
2022/09/23 10:00:42;;;;;;;3.20;1.85;;;;;;;24.76;35.62;95120.91;5009780;28;20801;-64
2022/09/23 10:03:13;;;;;;;2.67;2.10;;;;;;;25.26;35.90;95207.25;4958380;28;20080;-72
2022/09/23 10:05:44;;;;;;;2.03;1.70;;;;;;;25.45;35.49;95207.97;5000711;28;20061;-67
2022/09/23 10:08:23;;;;;;;2.72;1.95;;;;;;;25.51;35.56;95206.63;5026800;28;20037;-70
2022/09/23 10:10:58;;;;;;;2.00;1.80;;;;;;;25.62;34.97;95200.25;5035580;28;20049;-66
2022/09/23 10:13:26;;;;;;;2.70;2.00;;;;;;;25.54;35.05;95180.25;5025085;28;20645;-70
2022/09/23 10:15:54;;;;;;;4.05;2.00;;;;;;;25.58;34.96;95183.41;5034844;28;20037;-66
2022/09/23 10:18:29;;;;;;;2.13;1.88;;;;;;;25.75;34.73;95183.94;5016583;28;20032;-66
2022/09/23 10:21:12;;;;;;;3.33;1.88;;;;;;;25.84;34.96;95198.72;4998388;28;20106;-67
2022/09/23 10:23:42;;;;;;;2.70;1.80;;;;;;;25.87;34.85;95194.94;5004014;28;20230;-64
2022/09/23 10:26:09;;;;;;;2.10;1.85;;;;;;;25.44;34.48;95135.38;5034021;28;20060;-66
2022/09/23 10:28:45;;;;;;;2.50;1.75;;;;;;;25.89;34.59;95176.00;4993540;28;20068;-67
2022/09/23 10:31:10;;;;;;;1.75;1.50;;;;;;;25.97;34.59;95181.59;5014127;28;20048;-69
2022/09/23 10:33:48;;;;;;;2.00;1.70;;;;;;;25.93;34.16;95165.47;5006603;28;20042;-66
2022/09/23 10:36:15;;;;;;;1.90;1.60;;;;;;;25.90;34.39;95177.47;5013504;28;20057;-62
2022/09/23 10:38:41;;;;;;;2.10;1.50;;;;;;;26.05;34.03;95177.72;5021016;28;20099;-63
2022/09/23 10:47:23;;;;;;;2.15;1.77;;;;;;;25.59;35.05;95169.22;5007411;28;20322;-62
2022/09/23 10:49:55;;;;;;;2.10;1.65;;;;;;;26.04;34.28;95176.25;4999097;28;20053;-65
2022/09/23 10:52:45;;;;;;;2.92;1.70;;;;;;;25.99;34.30;95174.34;5027743;28;20052;-63
2022/09/23 10:55:35;;;;;;;2.75;1.73;;;;;;;25.90;34.39;95172.00;5037146;28;20121;-62
2022/09/23 10:58:20;;;;;;;2.10;1.80;;;;;;;25.86;34.24;95171.56;5001235;28;20113;-64
2022/09/23 11:01:00;;;;;;;2.05;1.33;;;;;;;25.80;34.84;95162.69;5009992;28;20082;-62
2022/09/23 11:03:50;;;;;;;2.63;1.80;;;;;;;25.77;34.88;95167.72;5006105;28;20064;-68
2022/09/23 11:06:37;;;;;;;2.55;2.08;;;;;;;25.69;34.79;95169.59;5002333;28;20049;-66
2022/09/23 11:09:30;;;;;;;2.22;1.77;;;;;;;25.65;34.59;95161.72;5016190;28;20041;-68
2022/09/23 11:12:00;;;;;;;2.30;1.40;;;;;;;25.34;34.76;95120.63;5006630;28;20143;-70
2022/09/23 11:14:47;;;;;;;1.90;1.63;;;;;;;25.60;34.78;95153.53;5000589;28;20072;-65
2022/09/23 11:17:31;;;;;;;2.15;1.50;;;;;;;25.49;35.32;95142.78;5002146;28;20095;-67
2022/09/23 11:20:15;;;;;;;2.20;1.60;;;;;;;25.45;35.44;95143.06;5003708;28;20104;-63
2022/09/23 11:23:06;;;;;;;2.78;1.52;;;;;;;25.00;35.75;95105.94;4995758;28;20038;-66
2022/09/23 11:25:41;;;;;;;2.50;1.65;;;;;;;25.07;36.25;95146.34;5026302;28;20172;-68
2022/09/23 11:28:17;;;;;;;2.50;1.60;;;;;;;25.17;35.95;95147.47;5009255;28;20030;-68
2022/09/23 11:30:55;;;;;;;4.43;1.70;;;;;;;25.04;36.12;95136.47;5010190;28;20208;-66
2022/09/23 11:33:45;;;;;;;2.15;1.42;;;;;;;24.82;36.09;95098.47;5007773;28;20072;-64
2022/09/23 11:36:32;;;;;;;1.98;1.70;;;;;;;25.18;36.06;95148.94;5003996;28;20367;-64
2022/09/23 11:38:59;;;;;;;2.33;1.60;;;;;;;24.86;36.19;95104.38;5006138;28;20677;-67
2022/09/23 11:41:26;;;;;;;1.60;1.40;;;;;;;24.75;36.20;95081.19;5003256;28;20042;-67
2022/09/23 11:44:02;;;;;;;1.73;1.33;;;;;;;24.75;36.36;95124.88;5002337;28;20122;-66
2022/09/23 11:46:42;;;;;;;1.98;1.50;;;;;;;24.45;36.63;95107.88;4988022;28;20079;-67
2022/09/23 11:49:32;;;;;;;2.22;1.42;;;;;;;24.48;37.07;95128.69;4984348;28;20050;-64
2022/09/23 11:52:19;;;;;;;1.70;1.40;;;;;;;24.26;37.24;95120.72;5005986;28;20078;-61
2022/09/23 11:54:56;;;;;;;1.77;1.52;;;;;;;24.23;36.96;95099.91;5005211;28;20433;-63
2022/09/23 11:57:28;;;;;;;2.22;1.52;;;;;;;24.33;37.16;95103.78;5026182;28;20096;-65
2022/09/23 11:59:58;;;;;;;2.17;1.45;;;;;;;23.87;37.14;95021.44;5011366;28;20510;-67
2022/09/23 12:02:47;;;;;;;1.83;1.40;;;;;;;24.27;37.00;95103.06;5009347;28;20068;-66